Latest Coastal Weather Observations for Tasman Island

IDT60701

Issued at 8:22 am EST Sunday 28 August 2016 (issued every 10 minutes, with the page automatically refreshed every 10 minutes)

About coastal observations | Map of coastal stations | Coastal observations for TAS | Marine services | Other Formats
Station Details ID: 094155 Name: TASMAN ISLAND Lat: -43.24 Lon: 148.00 Height: 240.0 m
Data from the previous 72 hours. | See also: Recent months at Tasman Island
Date/Time
EST
Temp
°C
Wind Pressure Rain since
9am
mm
Weather Cloud Vis
km
Sea
Height
m
Swell
Dir  Spd
kts
Gust
kts
hPa Trend Height
m
Period
s
Dir
28/08:00am 6.3 SW 14 29 1013.5 - 3.4 - - - - - - -
28/07:30am 6.1 SW 18 36 1012.8 - 3.4 - - - - - - -
28/07:00am 5.9 SW 22 37 1012.1 - 3.4 - - - - - - -
28/06:30am 6.2 SW 19 34 1011.2 - 3.4 - - - - - - -
28/06:01am 5.7 SW 16 32 1010.9 - 3.4 - - - - - - -
28/06:00am 5.7 SW 14 29 1010.9 - 3.4 - - - - - - -
28/05:30am 5.5 SW 17 31 1010.1 - 3.4 - - - - - - -
28/05:00am 5.5 SSW 19 33 1009.8 - 3.4 - - - - - - -
28/04:30am 4.9 SW 23 37 1009.0 - 3.4 - - - - - - -
28/04:00am 5.3 SW 25 37 1008.7 - 3.2 - - - - - - -
28/03:47am 5.0 SW 18 36 1008.3 - 3.2 - - - - - - -
28/03:36am 4.6 SW 19 38 1008.3 - 2.8 - - - - - - -
28/03:35am 4.5 SW 19 38 1008.2 - 2.6 - - - - - - -
28/03:30am 4.4 SW 25 49 1008.3 - 2.0 - - - - - - -
28/03:23am 5.4 SW 23 49 1007.4 - 1.4 - - - - - - -
28/03:00am 5.9 SW 22 37 1007.5 - 1.4 - - - - - - -
28/02:30am 5.7 SSW 23 41 1007.0 - 1.4 - - - - - - -
28/02:00am 5.9 SW 28 44 1006.0 - 1.4 - - - - - - -
28/01:30am 6.1 SW 25 43 1005.1 - 1.4 - - - - - - -
28/01:09am 6.4 WSW 12 42 1004.7 - 1.4 - - - - - - -
28/01:08am 6.6 WSW 11 42 1004.5 - 1.4 - - - - - - -
28/01:00am 6.9 SW 15 29 1004.8 - 0.8 - - - - - - -
28/12:52am 7.8 SW 9 25 1004.8 - 0.6 - - - - - - -
28/12:30am 8.8 WSW 6 19 1004.4 - 0.2 - - - - - - -
28/12:12am 9.3 NW 12 28 1004.2 - 0.0 - - - - - - -
28/12:02am 9.5 NW 26 36 1004.0 - 0.0 - - - - - - -
28/12:00am 9.5 NW 27 36 1003.9 - 0.0 - - - - - - -
 
Date/Time
EST
Temp
°C
Wind Pressure Rain since
9am
mm
Weather Cloud Vis
km
Sea
Height
m
Swell
Dir  Spd
kts
Gust
kts
hPa Trend Height
m
Period
s
Dir
27/11:30pm 10.4 NW 20 32 1003.9 - 0.0 - - - - - - -
27/11:00pm 10.3 NW 24 35 1003.9 - 0.0 - - - - - - -
27/10:30pm 9.7 NNW 19 33 1004.5 - 0.0 - - - - - - -
27/10:00pm 9.7 NNW 16 28 1005.0 - 0.0 - - - - - - -
27/09:30pm 9.7 NNW 19 35 1005.3 - 0.0 - - - - - - -
27/09:04pm 9.8 NW 25 36 1005.0 - 0.0 - - - - - - -
27/09:00pm 9.7 NW 23 31 1005.1 - 0.0 - - - - - - -
27/08:30pm 9.6 NW 23 34 1005.3 - 0.0 - - - - - - -
27/08:24pm 9.8 NNW 23 34 1005.3 - 0.0 - - - - - - -
27/08:00pm 9.8 NW 23 31 1005.6 - 0.0 - - - - - - -
27/07:30pm 10.0 NW 18 31 1006.4 - 0.0 - - - - - - -
27/07:00pm 10.3 NW 18 30 1006.5 - 0.0 - - - - - - -
27/06:40pm 10.5 NW 19 30 1006.7 - 0.0 - - - - - - -
27/06:30pm 10.4 NW 18 24 1006.8 - 0.0 - - - - - - -
27/06:00pm 10.9 WNW 19 27 1007.0 - 0.0 - - - - - - -
27/05:33pm 11.1 WNW 15 28 1006.9 - 0.0 - - - - - - -
27/05:30pm 11.1 NW 13 21 1007.0 - 0.0 - - - - - - -
27/05:08pm 11.1 NW 16 27 1007.0 - 0.0 - - - - - - -
27/05:00pm 11.2 NW 18 26 1006.8 - 0.0 - - - - - - -
27/04:30pm 11.3 NW 16 33 1006.9 - 0.0 - - - - - - -
27/04:16pm 11.4 NW 18 27 1006.9 - 0.0 - - - - - - -
27/04:00pm 11.6 WNW 11 19 1007.0 - 0.0 - - - - - - -
27/03:30pm 11.8 WNW 18 25 1006.8 - 0.0 - - - - - - -
27/03:00pm 11.9 WNW 20 27 1007.0 - 0.0 - - - - - - -
27/02:32pm 11.8 NW 20 31 1007.0 - 0.0 - - - - - - -
27/02:30pm 11.7 NW 20 29 1006.9 - 0.0 - - - - - - -
27/02:09pm 11.6 NW 24 34 1006.9 - 0.0 - - - - - - -
27/02:00pm 11.5 NW 25 34 1006.9 - 0.0 - - - - - - -
27/01:30pm 11.3 NW 22 31 1007.2 - 0.0 - - - - - - -
27/01:13pm 11.4 NW 21 33 1007.4 - 0.0 - - - - - - -
27/01:00pm 11.3 NW 20 28 1007.8 - 0.0 - - - - - - -
27/12:41pm 11.2 NW 19 30 1008.0 - 0.0 - - - - - - -
27/12:30pm 11.1 NW 19 26 1008.3 - 0.0 - - - - - - -
27/12:00pm 10.9 WNW 19 26 1008.6 - 0.0 - - - - - - -
27/11:31am 11.1 NW 24 35 1008.6 - 0.0 - - - - - - -
27/11:30am 11.1 NW 25 35 1008.6 - 0.0 - - - - - - -
27/11:00am 11.4 WNW 18 29 1009.2 - 0.0 - - - - - - -
27/10:50am 11.5 WNW 15 26 1009.2 - 0.0 - - - - - - -
27/10:30am 11.0 NW 15 24 1009.5 - 0.0 - - - - - - -
27/10:00am 11.1 NW 19 32 1009.6 - 0.0 - - - - - - -
27/09:30am 10.5 WNW 16 26 1010.1 - 0.0 - - - - - - -
27/09:27am 10.2 NW 16 26 1010.1 - 0.0 - - - - - - -
27/09:00am 10.5 WNW 14 22 1010.4 - 0.0 - - - - - - -
27/08:30am 10.0 WNW 15 32 1010.5 - 0.0 - - - - - - -
27/08:27am 9.9 WNW 15 28 1010.5 - 0.0 - - - - - - -
27/08:00am 9.7 WNW 16 25 1010.7 - 0.0 - - - - - - -
27/07:34am 9.2 WNW 19 31 1010.2 - 0.0 - - - - - - -
27/07:30am 9.2 WNW 19 28 1010.1 - 0.0 - - - - - - -
27/07:00am 9.1 WNW 19 29 1010.1 - 0.0 - - - - - - -
27/06:35am 8.7 WNW 18 28 1010.5 - 0.0 - - - - - - -
27/06:30am 8.8 NW 20 28 1010.4 - 0.0 - - - - - - -
27/06:00am 8.8 WNW 14 25 1010.5 - 0.0 - - - - - - -
27/05:32am 9.2 WNW 16 26 1010.6 - 0.0 - - - - - - -
27/05:30am 9.1 NW 17 26 1010.6 - 0.0 - - - - - - -
27/05:00am 8.5 NNW 12 18 1010.3 - 0.0 - - - - - - -
27/04:30am 8.9 NW 15 23 1010.3 - 0.0 - - - - - - -
27/04:00am 7.7 NNW 9 15 1011.0 - 0.0 - - - - - - -
27/03:30am 8.5 WNW 10 17 1011.2 - 0.0 - - - - - - -
27/03:00am 8.3 NW 12 17 1011.6 - 0.0 - - - - - - -
27/02:30am 8.3 WNW 4 11 1011.4 - 0.0 - - - - - - -
27/02:00am 8.7 WNW 4 15 1011.4 - 0.0 - - - - - - -
27/01:30am 9.7 W 9 19 1011.5 - 0.0 - - - - - - -
27/01:00am 9.6 NW 19 27 1010.9 - 0.0 - - - - - - -
27/12:30am 9.4 WNW 13 24 1011.3 - 0.0 - - - - - - -
27/12:00am 9.8 WNW 14 24 1011.4 - 0.0 - - - - - - -
 
Date/Time
EST
Temp
°C
Wind Pressure Rain since
9am
mm
Weather Cloud Vis
km
Sea
Height
m
Swell
Dir  Spd
kts
Gust
kts
hPa Trend Height
m
Period
s
Dir
26/11:41pm 9.7 WNW 15 25 1011.7 - 0.0 - - - - - - -
26/11:30pm 9.5 WNW 14 23 1011.8 - 0.0 - - - - - - -
26/11:00pm 9.5 NW 15 22 1012.0 - 0.0 - - - - - - -
26/10:30pm 9.6 NW 11 23 1012.1 - 0.0 - - - - - - -
26/10:00pm 9.7 NW 11 19 1012.3 - 0.0 - - - - - - -
26/09:30pm 9.8 WNW 5 18 1012.1 - 0.0 - - - - - - -
26/09:00pm 10.0 NW 13 25 1012.1 - 0.0 - - - - - - -
26/08:30pm 9.9 WNW 8 18 1012.0 - 0.0 - - - - - - -
26/08:00pm 10.0 WNW 10 22 1012.1 - 0.0 - - - - - - -
26/07:30pm 10.0 WNW 13 18 1012.0 - 0.0 - - - - - - -
26/07:00pm 9.8 WNW 9 18 1012.1 - 0.0 - - - - - - -
26/06:30pm 10.0 WNW 8 15 1012.1 - 0.0 - - - - - - -
26/06:00pm 10.4 WNW 8 18 1011.7 - 0.0 - - - - - - -
26/05:30pm 10.5 NW 10 17 1011.5 - 0.0 - - - - - - -
26/05:00pm 10.8 NW 9 17 1011.3 - 0.0 - - - - - - -
26/04:30pm 10.8 WNW 6 14 1011.3 - 0.0 - - - - - - -
26/04:00pm 11.1 NW 6 19 1011.0 - 0.0 - - - - - - -
26/03:30pm 11.5 WNW 7 16 1010.9 - 0.0 - - - - - - -
26/03:00pm 11.6 WNW 7 17 1010.9 - 0.0 - - - - - - -
26/02:30pm 11.4 WSW 4 15 1010.9 - 0.0 - - - - - - -
26/02:00pm 12.0 W 5 16 1011.0 - 0.0 - - - - - - -
26/01:30pm 11.3 W 5 19 1011.1 - 0.0 - - - - - - -
26/01:00pm 11.3 W 6 16 1011.3 - 0.0 - - - - - - -
26/12:30pm 10.5 W 4 14 1011.6 - 0.0 - - - - - - -
26/12:00pm 10.5 W 5 19 1011.7 - 0.0 - - - - - - -
26/11:30am 9.8 W 5 13 1012.0 - 0.0 - - - - - - -
26/11:00am 10.2 W 6 17 1012.2 - 0.0 - - - - - - -
26/10:30am 9.3 WNW 11 19 1012.4 - 0.0 - - - - - - -
26/10:00am 8.8 WNW 14 25 1012.4 - 0.0 - - - - - - -
26/09:35am 8.4 WNW 15 25 1012.3 - 0.0 - - - - - - -
26/09:30am 8.4 WNW 14 25 1012.4 - 0.0 - - - - - - -
26/09:00am 8.0 WNW 15 23 1012.5 - - - - - - - - -
26/08:30am 7.4 WNW 14 23 1012.4 - - - - - - - - -
26/08:00am 6.9 WNW 11 24 1012.5 - - - - - - - - -
26/07:30am 6.5 WNW 7 21 1012.5 - - - - - - - - -
26/07:00am 6.3 WNW 10 22 1012.3 - - - - - - - - -
26/06:30am 6.1 W 5 15 1012.2 - - - - - - - - -
26/06:00am 6.0 W 5 14 1012.1 - - - - - - - - -
26/05:30am 5.9 WNW 6 14 1012.2 - - - - - - - - -
26/05:00am 5.7 WSW 4 12 1012.0 - - - - - - - - -
26/04:30am 5.9 WNW 8 18 1011.8 - - - - - - - - -
26/04:00am 5.9 WNW 5 14 1011.8 - - - - - - - - -
26/03:30am 5.8 NW 8 19 1011.8 - - - - - - - - -
26/03:00am 5.8 W 5 15 1011.8 - 0.0 - - - - - - -
26/02:30am 5.9 W 6 18 1011.9 - - - - - - - - -
26/02:00am 5.8 WNW 5 16 1012.2 - - - - - - - - -
26/01:30am 5.8 W 6 16 1012.5 - - - - - - - - -
26/01:00am 5.9 WNW 5 14 1012.5 - - - - - - - - -
26/12:30am 5.8 WNW 6 16 1012.6 - - - - - - - - -
26/12:00am 5.9 NW 5 15 1012.7 - - - - - - - - -
 
Date/Time
EST
Temp
°C
Wind Pressure Rain since
9am
mm
Weather Cloud Vis
km
Sea
Height
m
Swell
Dir  Spd
kts
Gust
kts
hPa Trend Height
m
Period
s
Dir
25/11:30pm 6.0 NW 9 18 1012.6 - - - - - - - - -
25/11:00pm 6.2 NW 9 19 1012.9 - - - - - - - - -
25/10:30pm 6.7 NNW 4 14 1012.7 - - - - - - - - -
25/10:00pm 6.7 NNE 5 14 1012.5 - - - - - - - - -
25/09:30pm 6.7 NNW 5 17 1012.6 - - - - - - - - -
25/09:00pm 6.9 NNW 5 13 1012.6 - 0.0 - - - - - - -
25/08:30pm 7.1 W 5 13 1012.6 - - - - - - - - -
25/08:00pm 7.1 WSW 7 27 1012.4 - - - - - - - - -
25/07:30pm 7.1 WSW 12 30 1012.3 - - - - - - - - -
25/07:00pm 7.3 WSW 10 27 1012.2 - - - - - - - - -
25/06:30pm 7.5 SW 11 22 1012.0 - - - - - - - - -
25/06:00pm 7.5 WSW 11 23 1011.6 - - - - - - - - -
25/05:36pm 7.5 SW 15 28 1011.3 - - - - - - - - -
25/05:30pm 7.4 SW 13 26 1011.2 - - - - - - - - -
25/05:03pm 7.5 SW 15 29 1011.0 - - - - - - - - -
25/05:00pm 7.5 SW 14 29 1011.1 - - - - - - - - -
25/04:30pm 7.6 SW 15 26 1010.9 - - - - - - - - -
25/04:00pm 7.9 SW 15 29 1010.8 - - - - - - - - -
25/03:30pm 7.8 SW 15 28 1010.7 - - - - - - - - -
25/03:00pm 7.8 SW 16 29 1010.6 - - Recent precip. - - - - - -
25/02:31pm 7.5 SW 17 27 1010.7 - - - - - - - - -
25/02:30pm 7.4 SW 18 27 1010.7 - - - - - - - - -
25/02:08pm 6.7 SSW 16 28 1010.6 - - - - - - - - -
25/02:05pm 7.0 SSW 15 28 1010.5 - - - - - - - - -
25/02:02pm 8.0 SSW 14 28 1010.3 - - - - - - - - -
25/02:00pm 8.0 SW 14 23 1010.4 - - - - - - - - -
25/01:45pm 7.8 SW 16 26 1010.3 - - - - - - - - -
25/01:30pm 7.6 SW 17 24 1010.3 - - - - - - - - -
25/01:23pm 7.4 SW 15 28 1010.3 - 1.0 - - - - - - -
25/01:00pm 6.8 SSW 15 22 1010.5 - 1.0 - - - - - - -
25/12:30pm 6.9 SW 16 27 1010.6 - 0.8 - - - - - - -
25/12:06pm 8.0 SW 15 29 1010.5 - 0.6 - - - - - - -
25/12:00pm 8.7 SSW 12 21 1010.5 - 0.6 Recent precip. - - - - - -
25/11:30am 7.2 SW 7 18 1010.7 - 0.6 - - - - - - -
25/11:00am 8.6 SSW 13 21 1010.6 - 0.4 - - - - - - -
25/10:30am 8.9 SW 13 18 1010.5 - 0.0 - - - - - - -
25/10:00am 8.9 SSW 13 26 1010.4 - 0.0 - - - - - - -
25/09:30am 8.5 SSW 13 23 1010.3 - 0.0 - - - - - - -
25/09:00am 7.4 SSW 11 17 1010.4 - 1.6 - - - - - - -
25/08:30am 7.0 SSW 10 19 1010.0 - 1.6 - - - - - - -

Other Formats:

Comma delimited format used in spreadsheet applications
http://www.bom.gov.au/fwo/IDT60701/IDT60701.95986.axf

JavaScript Object Notation format (JSON) in row-major order
http://www.bom.gov.au/fwo/IDT60701/IDT60701.95986.json